Time;durP1;ratioP1;P1;durP2;ratioP2;P2;SDS_P1;SDS_P2;PMS_P1;PMS_P2;Temp;Humidity;BMP_temperature;BMP_pressure;BME280_temperature;BME280_humidity;BME280_pressure;Samples;Min_cycle;Max_cycle;Signal;HPM_P1;HPM_P2
2022/07/02 00:00:40;;;;;;;1.93;0.90;;;;;;;14.66;nan;101143.94;5009339;28;20434;-72
2022/07/02 00:03:05;;;;;;;1.67;1.02;;;;;;;14.70;nan;101147.09;5004573;28;20277;-73
2022/07/02 00:05:32;;;;;;;1.00;0.80;;;;;;;14.65;nan;101143.06;5008622;28;20491;-72
2022/07/02 00:07:58;;;;;;;1.45;0.90;;;;;;;14.64;nan;101146.75;5008838;28;20139;-73
2022/07/02 00:10:23;;;;;;;1.30;0.82;;;;;;;14.58;nan;101142.06;5009080;28;20108;-72
2022/07/02 00:12:48;;;;;;;1.17;0.80;;;;;;;14.56;nan;101135.22;5008392;28;20026;-73
2022/07/02 00:15:16;;;;;;;1.90;0.70;;;;;;;14.61;nan;101143.56;5010008;28;20491;-72
2022/07/02 00:17:42;;;;;;;1.15;0.85;;;;;;;14.61;nan;101132.91;5008824;28;20503;-72
2022/07/02 00:20:08;;;;;;;1.27;0.93;;;;;;;14.57;nan;101137.75;5011601;28;20137;-73
2022/07/02 00:22:33;;;;;;;1.27;0.70;;;;;;;14.52;nan;101149.84;5012721;28;20113;-72
2022/07/02 00:24:59;;;;;;;2.10;0.98;;;;;;;14.49;nan;101147.50;5013168;28;20037;-72
2022/07/02 00:27:27;;;;;;;1.27;0.90;;;;;;;14.47;nan;101146.81;4992897;28;20053;-75
2022/07/02 00:30:01;;;;;;;1.75;0.85;;;;;;;14.42;nan;101147.34;5013007;28;20033;-75
2022/07/02 00:32:34;;;;;;;1.77;1.10;;;;;;;14.45;nan;101150.50;5011864;28;20411;-72
2022/07/02 00:35:09;;;;;;;2.13;0.80;;;;;;;14.49;nan;101153.69;5012883;28;20062;-73
2022/07/02 00:37:36;;;;;;;2.33;0.93;;;;;;;14.52;nan;101149.84;5012529;28;20040;-75
2022/07/02 00:40:03;;;;;;;1.88;0.90;;;;;;;14.50;nan;101147.34;5015729;28;20053;-72
2022/07/02 00:42:30;;;;;;;1.40;0.80;;;;;;;14.53;nan;101160.31;5002567;28;20120;-72
2022/07/02 00:44:57;;;;;;;2.70;1.13;;;;;;;14.55;nan;101161.03;5011230;28;20072;-75
2022/07/02 00:47:25;;;;;;;1.23;0.90;;;;;;;14.56;nan;101148.53;5007635;28;20428;-72
2022/07/02 00:49:51;;;;;;;1.25;0.90;;;;;;;14.50;nan;101155.31;5011004;28;20045;-72
2022/07/02 00:52:16;;;;;;;1.80;1.00;;;;;;;14.43;nan;101155.13;5006643;28;20038;-75
2022/07/02 00:54:42;;;;;;;1.33;0.70;;;;;;;14.40;nan;101149.31;5008498;28;20057;-72
2022/07/02 00:57:07;;;;;;;1.50;0.88;;;;;;;14.36;nan;101145.31;5008162;28;20239;-72
2022/07/02 00:59:34;;;;;;;1.60;1.00;;;;;;;14.38;nan;101151.31;5009767;28;20116;-72
2022/07/02 01:02:00;;;;;;;3.38;1.45;;;;;;;14.45;nan;101154.97;5007995;28;20415;-73
2022/07/02 01:04:29;;;;;;;1.52;1.00;;;;;;;14.52;nan;101153.34;5007269;28;20195;-75
2022/07/02 01:07:02;;;;;;;2.22;1.30;;;;;;;14.57;nan;101148.38;5010316;28;20045;-73
2022/07/02 01:12:14;;;;;;;1.50;1.00;;;;;;;14.45;nan;101152.31;5012201;28;20449;-72
2022/07/02 01:14:40;;;;;;;1.15;0.85;;;;;;;14.38;nan;101151.31;5011384;28;20045;-72
2022/07/02 01:17:05;;;;;;;1.65;0.90;;;;;;;14.30;nan;101152.13;5008737;28;20379;-72
2022/07/02 01:19:30;;;;;;;2.63;0.90;;;;;;;14.34;nan;101147.28;5008962;28;20440;-75
2022/07/02 01:22:19;;;;;;;1.50;1.02;;;;;;;14.34;nan;101144.63;5010068;28;20052;-72
2022/07/02 01:24:47;;;;;;;1.83;1.00;;;;;;;14.38;nan;101148.66;4991330;28;20070;-72
2022/07/02 01:27:12;;;;;;;1.50;1.00;;;;;;;14.39;nan;101147.63;4989525;28;20044;-72
2022/07/02 01:29:37;;;;;;;1.80;1.00;;;;;;;14.40;nan;101151.97;5008100;28;20038;-73
2022/07/02 01:32:04;;;;;;;1.25;1.00;;;;;;;14.38;nan;101151.31;5008707;28;20527;-72
2022/07/02 01:34:35;;;;;;;1.85;1.00;;;;;;;14.32;nan;101149.28;5008988;28;20124;-72
2022/07/02 01:37:00;;;;;;;1.15;0.75;;;;;;;14.19;nan;101144.41;4990857;28;20041;-75
2022/07/02 01:39:25;;;;;;;1.27;1.00;;;;;;;14.09;nan;101147.19;5008880;28;20045;-73
2022/07/02 01:41:51;;;;;;;1.10;0.80;;;;;;;13.99;nan;101151.78;5023099;28;20041;-75
2022/07/02 01:44:17;;;;;;;1.00;0.90;;;;;;;13.92;nan;101148.94;5013535;28;20026;-73
2022/07/02 01:46:44;;;;;;;1.10;0.70;;;;;;;13.87;nan;101140.63;5007897;28;20034;-72
2022/07/02 01:49:09;;;;;;;1.13;0.90;;;;;;;13.83;nan;101141.09;4991374;28;20036;-73
2022/07/02 01:51:35;;;;;;;1.67;1.05;;;;;;;13.78;nan;101145.06;5006980;28;20034;-75
2022/07/02 01:54:00;;;;;;;1.02;0.70;;;;;;;13.73;nan;101142.03;5007174;28;20133;-74
2022/07/02 01:56:25;;;;;;;1.52;0.90;;;;;;;13.74;nan;101141.03;5006703;28;20041;-75
2022/07/02 01:58:51;;;;;;;1.17;0.80;;;;;;;13.76;nan;101148.84;5008159;28;20501;-74
2022/07/02 02:01:16;;;;;;;1.30;0.82;;;;;;;13.71;nan;101141.34;5006843;28;20268;-74
2022/07/02 02:03:41;;;;;;;1.25;0.90;;;;;;;13.66;nan;101148.13;5006806;28;20083;-74
2022/07/02 02:06:06;;;;;;;1.30;0.80;;;;;;;13.62;nan;101144.13;5006853;28;20034;-75
2022/07/02 02:08:32;;;;;;;1.45;0.90;;;;;;;13.58;nan;101147.06;5003568;28;20582;-74
2022/07/02 02:10:57;;;;;;;1.75;1.00;;;;;;;13.53;nan;101148.53;4992187;28;20040;-74
2022/07/02 02:13:22;;;;;;;1.42;0.98;;;;;;;13.47;nan;101144.69;5013525;28;20495;-75
2022/07/02 02:15:48;;;;;;;1.52;0.80;;;;;;;13.44;nan;101150.28;5005987;28;20041;-75
2022/07/02 02:18:13;;;;;;;1.98;1.02;;;;;;;13.38;nan;101146.44;5001765;28;20034;-75
2022/07/02 02:20:38;;;;;;;2.88;1.10;;;;;;;13.35;nan;101151.25;4986410;28;20034;-74
2022/07/02 02:23:04;;;;;;;1.00;0.75;;;;;;;13.32;nan;101147.09;5021867;28;20049;-74
2022/07/02 02:25:31;;;;;;;1.83;0.80;;;;;;;13.31;nan;101150.72;4988382;28;20077;-74
2022/07/02 02:31:36;;;;;;;1.70;1.00;;;;;;;13.26;nan;101152.13;5015850;28;20040;-74
2022/07/02 02:34:02;;;;;;;1.80;1.00;;;;;;;13.26;nan;101147.66;5011074;28;20074;-75
2022/07/02 02:36:27;;;;;;;1.95;1.08;;;;;;;13.25;nan;101150.44;4987355;28;20446;-74
2022/07/02 02:38:53;;;;;;;1.00;0.80;;;;;;;13.23;nan;101149.78;5008121;28;20064;-74
2022/07/02 02:41:18;;;;;;;1.55;0.70;;;;;;;13.20;nan;101147.44;5011489;28;20553;-74
2022/07/02 02:43:43;;;;;;;1.48;0.95;;;;;;;13.18;nan;101148.44;5010191;28;20173;-74
2022/07/02 02:46:09;;;;;;;1.17;0.90;;;;;;;13.17;nan;101151.22;5029049;28;20410;-74
2022/07/02 02:48:36;;;;;;;1.20;0.90;;;;;;;13.12;nan;101151.69;5017846;28;20484;-74
2022/07/02 02:51:01;;;;;;;1.40;0.90;;;;;;;13.11;nan;101160.66;5006178;28;20033;-74
2022/07/02 02:53:27;;;;;;;1.45;1.00;;;;;;;13.09;nan;101153.81;5008585;28;20041;-74
2022/07/02 02:55:52;;;;;;;0.93;0.77;;;;;;;13.04;nan;101159.59;5008240;28;20530;-74
2022/07/02 02:58:18;;;;;;;3.85;1.30;;;;;;;13.06;nan;101162.94;5005629;28;20450;-74
2022/07/02 03:00:43;;;;;;;2.70;1.00;;;;;;;13.06;nan;101156.75;4991475;28;20406;-74
2022/07/02 03:03:08;;;;;;;1.60;1.00;;;;;;;13.04;nan;101154.28;5006412;28;20455;-75
2022/07/02 03:05:34;;;;;;;1.55;1.10;;;;;;;13.05;nan;101161.25;5009947;28;20273;-74
2022/07/02 03:07:59;;;;;;;2.67;1.10;;;;;;;13.06;nan;101157.63;5009171;28;20348;-75
2022/07/02 03:10:25;;;;;;;1.08;0.90;;;;;;;13.10;nan;101158.13;5010084;28;20139;-75
2022/07/02 03:12:50;;;;;;;2.45;1.30;;;;;;;13.10;nan;101163.44;4992262;28;20038;-74
2022/07/02 03:15:16;;;;;;;1.63;1.00;;;;;;;13.12;nan;101164.13;5010410;28;20030;-75
2022/07/02 03:17:41;;;;;;;1.77;1.02;;;;;;;13.12;nan;101170.28;5007992;28;20064;-74
2022/07/02 03:20:07;;;;;;;1.10;0.93;;;;;;;13.08;nan;101166.25;5007365;28;20455;-75
2022/07/02 03:22:33;;;;;;;1.85;1.02;;;;;;;13.07;nan;101169.91;4990914;28;20133;-75
2022/07/02 03:24:58;;;;;;;2.13;1.10;;;;;;;13.06;nan;101170.03;5008415;28;20116;-75
2022/07/02 03:27:24;;;;;;;1.75;1.20;;;;;;;13.08;nan;101181.34;5006825;28;20042;-74
2022/07/02 03:29:50;;;;;;;3.25;1.40;;;;;;;13.04;nan;101174.66;5006604;28;20038;-74
2022/07/02 03:32:16;;;;;;;1.75;0.95;;;;;;;13.00;nan;101176.81;5005996;28;20038;-74
2022/07/02 03:34:41;;;;;;;1.30;1.00;;;;;;;12.99;nan;101176.94;5005781;28;20038;-74
2022/07/02 03:37:06;;;;;;;1.75;1.02;;;;;;;13.01;nan;101182.94;5006549;28;20131;-75
2022/07/02 03:39:32;;;;;;;1.58;0.98;;;;;;;13.08;nan;101187.47;5005975;28;20281;-74
2022/07/02 03:41:57;;;;;;;1.17;0.98;;;;;;;13.12;nan;101188.84;5008758;28;20038;-74
2022/07/02 03:44:22;;;;;;;2.00;1.10;;;;;;;13.12;nan;101193.34;5014017;28;20044;-74
2022/07/02 03:46:47;;;;;;;1.58;0.98;;;;;;;13.11;nan;101189.84;5008208;28;20487;-74
2022/07/02 03:49:13;;;;;;;3.78;1.20;;;;;;;13.07;nan;101185.00;5006906;28;20042;-75
2022/07/02 03:51:38;;;;;;;1.17;0.82;;;;;;;13.05;nan;101186.97;4989299;28;20034;-74
2022/07/02 03:54:04;;;;;;;1.20;0.90;;;;;;;13.03;nan;101191.59;5005848;28;20092;-74
2022/07/02 03:56:29;;;;;;;1.55;0.90;;;;;;;13.02;nan;101196.06;5006264;28;20491;-74
2022/07/02 03:58:54;;;;;;;1.10;0.90;;;;;;;13.01;nan;101194.38;5007569;28;20034;-74
2022/07/02 04:01:20;;;;;;;1.38;0.80;;;;;;;13.02;nan;101193.41;5004274;28;20064;-74
2022/07/02 04:03:45;;;;;;;1.20;0.70;;;;;;;13.04;nan;101190.59;5006670;28;20033;-74
2022/07/02 04:06:10;;;;;;;1.15;0.90;;;;;;;13.05;nan;101192.28;5006386;28;20502;-74
2022/07/02 04:08:36;;;;;;;1.02;0.80;;;;;;;13.06;nan;101194.78;5005790;28;20038;-74
2022/07/02 04:11:01;;;;;;;1.27;0.88;;;;;;;13.08;nan;101191.97;5006957;28;20044;-74
2022/07/02 04:13:27;;;;;;;1.27;0.90;;;;;;;13.10;nan;101192.66;5004300;28;20046;-74
2022/07/02 04:15:52;;;;;;;1.48;1.00;;;;;;;13.13;nan;101187.03;5009635;28;20044;-74
2022/07/02 04:18:18;;;;;;;1.23;0.93;;;;;;;13.22;nan;101186.13;5004889;28;20062;-74
2022/07/02 04:20:43;;;;;;;1.17;0.95;;;;;;;13.29;nan;101189.03;5007616;28;20029;-74
2022/07/02 04:23:09;;;;;;;1.67;1.00;;;;;;;13.39;nan;101187.13;5008377;28;20030;-73
2022/07/02 04:25:34;;;;;;;2.05;1.20;;;;;;;13.45;nan;101189.16;5006311;28;20100;-73
2022/07/02 04:27:59;;;;;;;1.98;1.00;;;;;;;13.53;nan;101188.41;5008261;28;20064;-73
2022/07/02 04:30:25;;;;;;;1.70;0.93;;;;;;;13.61;nan;101188.47;5005857;28;20626;-73
2022/07/02 04:32:50;;;;;;;2.10;1.20;;;;;;;13.68;nan;101184.19;4989126;28;20030;-73
2022/07/02 04:35:15;;;;;;;2.10;1.25;;;;;;;13.71;nan;101175.06;5006219;28;20038;-73
2022/07/02 04:37:41;;;;;;;1.60;1.20;;;;;;;13.78;nan;101176.13;5007733;28;20030;-73
2022/07/02 04:40:07;;;;;;;1.98;1.17;;;;;;;13.90;nan;101172.19;5004445;28;20120;-73
2022/07/02 04:42:32;;;;;;;3.00;1.10;;;;;;;13.99;nan;101181.03;5005888;28;20038;-73
2022/07/02 04:44:58;;;;;;;2.00;1.20;;;;;;;14.02;nan;101173.59;4992363;28;20049;-73
2022/07/02 04:47:23;;;;;;;1.77;1.15;;;;;;;14.08;nan;101180.09;5006509;28;20037;-73
2022/07/02 04:49:48;;;;;;;2.10;1.30;;;;;;;14.18;nan;101174.66;5006339;28;20038;-73
2022/07/02 04:52:13;;;;;;;1.60;1.10;;;;;;;14.30;nan;101178.72;5006233;28;20038;-73
2022/07/02 04:54:39;;;;;;;2.80;1.20;;;;;;;14.34;nan;101179.22;4992081;28;20109;-73
2022/07/02 04:57:04;;;;;;;2.30;1.38;;;;;;;14.43;nan;101181.75;4992098;28;20129;-73
2022/07/02 04:59:30;;;;;;;1.77;1.17;;;;;;;14.50;nan;101183.78;5006131;28;20114;-73
2022/07/02 05:01:55;;;;;;;1.90;1.20;;;;;;;14.55;nan;101173.50;5007282;28;20041;-73
2022/07/02 05:04:20;;;;;;;1.60;1.00;;;;;;;14.56;nan;101189.31;5006255;28;20045;-73
2022/07/02 05:06:46;;;;;;;1.88;1.10;;;;;;;14.62;nan;101193.16;5011175;28;20045;-73
2022/07/02 05:09:11;;;;;;;1.88;1.10;;;;;;;14.71;nan;101194.84;5009625;28;20038;-73
2022/07/02 05:11:36;;;;;;;1.75;1.20;;;;;;;14.75;nan;101193.50;4990216;28;20042;-73
2022/07/02 05:14:02;;;;;;;2.00;1.10;;;;;;;14.83;nan;101190.06;5007567;28;20081;-73
2022/07/02 05:16:27;;;;;;;2.95;1.30;;;;;;;14.96;nan;101194.88;4992905;28;20469;-73
2022/07/02 05:18:53;;;;;;;3.50;1.50;;;;;;;15.09;nan;101192.59;5011964;28;20626;-73
2022/07/02 05:21:18;;;;;;;2.45;1.30;;;;;;;15.25;nan;101194.41;5013126;28;20116;-73
2022/07/02 05:23:43;;;;;;;1.60;1.08;;;;;;;15.30;nan;101192.06;5012696;28;20034;-73
2022/07/02 05:26:08;;;;;;;3.53;1.30;;;;;;;15.32;nan;101195.41;5012175;28;20401;-73
2022/07/02 05:28:34;;;;;;;3.40;1.33;;;;;;;15.37;nan;101190.41;5010566;28;20388;-73
2022/07/02 05:30:59;;;;;;;2.22;1.27;;;;;;;15.44;nan;101198.56;5009943;28;20046;-73
2022/07/02 05:33:24;;;;;;;2.60;1.20;;;;;;;15.48;nan;101197.25;5010036;28;20108;-73
2022/07/02 05:35:51;;;;;;;1.75;1.00;;;;;;;15.56;nan;101197.22;5009837;28;20045;-73
2022/07/02 05:38:17;;;;;;;2.42;1.40;;;;;;;15.65;nan;101201.56;5010328;28;20129;-73
2022/07/02 05:40:42;;;;;;;1.75;1.00;;;;;;;15.70;nan;101199.25;4991652;28;20113;-73
2022/07/02 05:43:08;;;;;;;1.67;1.23;;;;;;;15.80;nan;101199.09;5009374;28;20034;-72
2022/07/02 05:45:33;;;;;;;2.85;1.30;;;;;;;15.92;nan;101196.88;4996596;28;20049;-73
2022/07/02 05:47:58;;;;;;;3.50;1.30;;;;;;;16.07;nan;101203.19;4993568;28;20041;-73
2022/07/02 05:50:23;;;;;;;1.92;1.10;;;;;;;16.34;nan;101199.25;5006976;28;20289;-73
2022/07/02 05:52:49;;;;;;;2.05;1.15;;;;;;;16.74;nan;101215.25;5011179;28;20137;-73
2022/07/02 05:55:14;;;;;;;1.58;1.15;;;;;;;17.21;nan;101208.97;5012755;28;20037;-73
2022/07/02 05:57:40;;;;;;;1.77;1.20;;;;;;;17.61;nan;101210.47;5011453;28;20073;-74
2022/07/02 06:00:07;;;;;;;3.15;1.20;;;;;;;18.03;nan;101206.41;5008850;28;20034;-73
2022/07/02 06:02:33;;;;;;;1.60;1.00;;;;;;;18.51;nan;101207.84;5008444;28;20053;-73
2022/07/02 06:04:58;;;;;;;1.50;0.95;;;;;;;18.97;nan;101212.91;5011693;28;20573;-73
2022/07/02 06:07:38;;;;;;;;;;;;;;;19.41;nan;101212.75;5010794;28;20038;-73
2022/07/02 06:10:05;;;;;;;2.30;1.20;;;;;;;19.96;nan;101214.84;5009549;28;19949;-73
2022/07/02 06:12:30;;;;;;;1.30;0.85;;;;;;;20.49;nan;101223.97;5008564;28;20033;-73
2022/07/02 06:14:55;;;;;;;1.52;1.08;;;;;;;20.90;nan;101225.81;5009909;28;20191;-73
2022/07/02 06:17:21;;;;;;;1.20;0.80;;;;;;;21.24;nan;101218.66;4990580;28;20030;-73
2022/07/02 06:19:48;;;;;;;1.38;0.73;;;;;;;21.77;nan;101226.75;5009164;28;20413;-73
2022/07/02 06:22:14;;;;;;;1.80;0.90;;;;;;;21.95;nan;101226.13;5010185;28;20034;-73
2022/07/02 06:24:39;;;;;;;2.05;0.70;;;;;;;22.40;nan;101226.19;5012838;28;20041;-73
2022/07/02 06:27:05;;;;;;;0.85;0.52;;;;;;;23.00;nan;101228.66;5011996;28;20065;-73
2022/07/02 06:29:31;;;;;;;0.82;0.60;;;;;;;23.51;nan;101227.66;5009115;28;20034;-73
2022/07/02 06:31:57;;;;;;;1.15;0.60;;;;;;;23.66;nan;101221.09;5010897;28;20159;-73
2022/07/02 06:34:22;;;;;;;1.60;0.85;;;;;;;23.72;nan;101225.63;5008194;28;20029;-73
2022/07/02 06:36:47;;;;;;;1.15;0.70;;;;;;;23.98;nan;101221.00;5009138;28;20065;-73
2022/07/02 06:39:13;;;;;;;1.55;0.80;;;;;;;24.23;nan;101220.97;5009613;28;20293;-72
2022/07/02 06:44:22;;;;;;;1.88;0.85;;;;;;;25.15;nan;101223.53;5011664;28;20362;-73
2022/07/02 06:46:47;;;;;;;1.02;0.73;;;;;;;25.45;nan;101222.66;5011648;28;20050;-73
2022/07/02 06:49:12;;;;;;;1.77;0.80;;;;;;;25.59;nan;101216.78;5010765;28;20068;-73
2022/07/02 06:51:38;;;;;;;2.85;1.00;;;;;;;25.75;nan;101220.66;5007626;28;20030;-74
2022/07/02 06:54:03;;;;;;;2.40;0.80;;;;;;;26.01;nan;101221.28;5009607;28;20033;-74
2022/07/02 06:56:32;;;;;;;2.75;1.13;;;;;;;25.82;nan;101215.13;5010868;28;20406;-73
2022/07/02 06:58:57;;;;;;;1.58;0.98;;;;;;;25.92;nan;101212.69;5010678;28;20045;-73
2022/07/02 07:01:23;;;;;;;1.92;1.10;;;;;;;26.16;nan;101224.31;5007904;28;20538;-73
2022/07/02 07:03:48;;;;;;;1.80;0.70;;;;;;;26.31;nan;101225.69;5008026;28;20095;-74
2022/07/02 07:06:13;;;;;;;1.90;1.27;;;;;;;26.08;nan;101223.84;5009756;28;20064;-73
2022/07/02 07:08:39;;;;;;;1.55;0.75;;;;;;;25.97;nan;101215.50;5010094;28;20503;-73
2022/07/02 07:11:05;;;;;;;1.88;0.90;;;;;;;26.26;nan;101220.97;5008153;28;20034;-73
2022/07/02 07:13:30;;;;;;;1.23;0.80;;;;;;;26.46;nan;101223.31;5009692;28;20029;-74
2022/07/02 07:15:55;;;;;;;1.60;1.08;;;;;;;26.42;nan;101216.72;5010702;28;20128;-74
2022/07/02 07:18:21;;;;;;;3.15;1.13;;;;;;;26.38;nan;101212.81;5006559;28;20402;-73
2022/07/02 07:20:47;;;;;;;3.05;1.00;;;;;;;26.43;nan;101218.34;4993559;28;20040;-73
2022/07/02 07:23:13;;;;;;;1.80;0.88;;;;;;;26.82;nan;101221.31;4994994;28;20044;-74
2022/07/02 07:25:39;;;;;;;2.33;0.77;;;;;;;27.06;nan;101213.88;5012155;28;20034;-74
2022/07/02 07:28:04;;;;;;;2.53;0.85;;;;;;;26.89;nan;101209.22;5011360;28;20045;-74
2022/07/02 07:30:29;;;;;;;2.65;1.00;;;;;;;27.01;nan;101203.75;5008043;28;20062;-74
2022/07/02 07:32:55;;;;;;;5.22;1.00;;;;;;;27.21;nan;101203.28;5009461;28;20042;-74
2022/07/02 07:35:20;;;;;;;2.05;0.90;;;;;;;27.34;nan;101207.59;5009094;28;20033;-73
2022/07/02 07:37:57;;;;;;;1.43;0.90;;;;;;;27.42;nan;101211.78;5011553;28;20088;-74
2022/07/02 07:40:23;;;;;;;1.60;1.00;;;;;;;27.57;nan;101205.75;5005924;28;20276;-74
2022/07/02 07:42:48;;;;;;;3.13;1.00;;;;;;;27.84;nan;101200.47;4992172;28;20037;-74
2022/07/02 07:45:13;;;;;;;2.10;0.80;;;;;;;27.92;nan;101202.75;5015611;28;20125;-73
2022/07/02 07:47:39;;;;;;;1.00;0.70;;;;;;;28.25;nan;101193.66;4991171;28;20051;-74
2022/07/02 07:50:05;;;;;;;1.50;0.80;;;;;;;28.77;nan;101198.63;4993748;28;20057;-74
2022/07/02 07:52:30;;;;;;;2.08;0.80;;;;;;;29.09;nan;101197.03;5012438;28;20292;-74
2022/07/02 07:54:55;;;;;;;2.70;0.90;;;;;;;29.17;nan;101196.53;4997181;28;20120;-74
2022/07/02 07:57:20;;;;;;;1.93;0.80;;;;;;;28.90;nan;101191.13;4994300;28;20828;-74
2022/07/02 07:59:46;;;;;;;2.13;0.70;;;;;;;29.16;nan;101193.00;5007533;28;20293;-74
2022/07/02 08:02:11;;;;;;;1.30;0.70;;;;;;;29.49;nan;101187.53;5003066;28;20030;-74
2022/07/02 08:04:36;;;;;;;1.02;0.65;;;;;;;29.77;nan;101178.19;5005147;28;20030;-74
2022/07/02 08:07:02;;;;;;;1.37;0.70;;;;;;;30.38;nan;101181.19;5009313;28;20071;-74
2022/07/02 08:09:27;;;;;;;1.65;0.90;;;;;;;30.75;nan;101173.88;4993887;28;20401;-74
2022/07/02 08:11:52;;;;;;;1.20;0.70;;;;;;;30.72;nan;101171.72;5011563;28;20026;-74
2022/07/02 08:14:18;;;;;;;1.70;0.70;;;;;;;31.11;nan;101172.88;5011095;28;20034;-74
2022/07/02 08:16:43;;;;;;;2.70;0.93;;;;;;;31.39;nan;101176.09;4993964;28;20785;-74
2022/07/02 08:19:08;;;;;;;1.65;0.50;;;;;;;31.65;nan;101173.34;5011911;28;20273;-74
2022/07/02 08:21:33;;;;;;;1.50;0.70;;;;;;;31.84;nan;101181.78;5006986;28;20042;-74
2022/07/02 08:23:59;;;;;;;1.63;0.70;;;;;;;31.94;nan;101176.25;5011623;28;20416;-74
2022/07/02 08:26:24;;;;;;;0.80;0.50;;;;;;;32.22;nan;101173.97;5006890;28;20120;-74
2022/07/02 08:28:49;;;;;;;0.60;0.50;;;;;;;32.47;nan;101170.31;5012320;28;20030;-74
2022/07/02 08:31:14;;;;;;;1.23;0.40;;;;;;;32.65;nan;101171.56;5007336;28;20292;-74
2022/07/02 08:33:40;;;;;;;0.90;0.40;;;;;;;33.20;nan;101169.50;5009611;28;20711;-74
2022/07/02 08:36:05;;;;;;;1.30;0.60;;;;;;;33.67;nan;101164.41;5008516;28;20041;-75
2022/07/02 08:38:31;;;;;;;0.75;0.50;;;;;;;34.28;nan;101165.56;5013414;28;20273;-74
2022/07/02 08:40:56;;;;;;;1.17;0.50;;;;;;;33.96;nan;101161.56;5012703;28;20081;-74
2022/07/02 08:43:26;;;;;;;0.73;0.50;;;;;;;33.95;nan;101159.94;4995647;28;20030;-74
2022/07/02 08:45:52;;;;;;;0.95;0.50;;;;;;;34.28;nan;101163.66;5011971;28;20030;-74
2022/07/02 08:48:18;;;;;;;0.88;0.60;;;;;;;34.62;nan;101146.97;5011019;28;20030;-74
2022/07/02 08:50:45;;;;;;;0.93;0.40;;;;;;;34.92;nan;101155.84;4995031;28;20115;-74
2022/07/02 08:53:11;;;;;;;1.27;0.63;;;;;;;35.28;nan;101147.00;5012646;28;20527;-74
2022/07/02 08:55:37;;;;;;;1.48;0.60;;;;;;;35.36;nan;101145.47;5011211;28;20072;-74
2022/07/02 08:58:04;;;;;;;1.52;0.57;;;;;;;34.93;nan;101145.66;5012669;28;20037;-74
2022/07/02 09:00:29;;;;;;;0.80;0.40;;;;;;;35.01;nan;101150.44;5009293;28;20029;-74
2022/07/02 09:02:57;;;;;;;0.70;0.47;;;;;;;35.40;nan;101146.50;4999269;28;20038;-74
2022/07/02 09:05:24;;;;;;;0.80;0.40;;;;;;;35.99;nan;101146.69;4994565;28;20036;-74
2022/07/02 09:07:50;;;;;;;0.98;0.40;;;;;;;36.36;nan;101134.59;5012044;28;20026;-74
2022/07/02 09:10:17;;;;;;;1.15;0.40;;;;;;;36.87;nan;101138.88;4996148;28;20033;-74
2022/07/02 09:12:43;;;;;;;0.85;0.45;;;;;;;36.53;nan;101133.91;5000230;28;20029;-74
2022/07/02 09:15:10;;;;;;;0.63;0.40;;;;;;;36.89;nan;101128.34;5010685;28;20513;-74
2022/07/02 09:17:36;;;;;;;1.13;0.40;;;;;;;37.05;nan;101139.00;5009285;28;20094;-74
2022/07/02 09:20:02;;;;;;;0.82;0.38;;;;;;;37.47;nan;101129.31;5011078;28;20170;-74
2022/07/02 09:22:39;;;;;;;0.57;0.40;;;;;;;37.86;nan;101053.13;5011926;28;20117;-74
2022/07/02 09:25:11;;;;;;;0.73;0.40;;;;;;;38.72;nan;101045.09;5012378;28;20034;-74
2022/07/02 09:27:37;;;;;;;0.82;0.30;;;;;;;38.54;nan;101034.09;4994285;28;20030;-74
2022/07/02 09:30:03;;;;;;;1.30;0.50;;;;;;;38.40;nan;101028.75;5011581;28;20049;-72
2022/07/02 09:32:37;;;;;;;0.40;0.32;;;;;;;36.72;nan;101107.00;5017846;28;20030;-72
2022/07/02 09:35:03;;;;;;;2.08;0.35;;;;;;;34.61;nan;101103.31;4994401;28;20109;-74
2022/07/02 09:37:28;;;;;;;0.80;0.35;;;;;;;33.25;nan;101089.16;5011803;28;20037;-74
2022/07/02 09:39:55;;;;;;;;;;;;;;;32.41;nan;101092.84;5004849;28;20033;-73
2022/07/02 09:42:29;;;;;;;1.17;0.30;;;;;;;32.02;nan;101090.09;5007801;28;20271;-72
2022/07/02 09:44:55;;;;;;;0.45;0.30;;;;;;;31.88;nan;101087.94;5009841;28;20253;-73
2022/07/02 09:47:38;;;;;;;2.53;0.50;;;;;;;33.24;nan;101093.00;5008791;28;20044;-72
2022/07/02 09:50:09;;;;;;;0.30;0.30;;;;;;;34.88;nan;101094.34;5003764;28;20049;-74
2022/07/02 09:52:35;;;;;;;0.55;0.30;;;;;;;35.68;nan;101073.88;4989020;28;20037;-74
2022/07/02 09:55:02;;;;;;;1.00;0.40;;;;;;;35.76;nan;101088.84;5010235;28;20049;-74
2022/07/02 09:57:28;;;;;;;0.57;0.32;;;;;;;35.85;nan;101086.16;5008258;28;20131;-74
2022/07/02 10:00:03;;;;;;;0.90;0.40;;;;;;;35.23;nan;101081.91;4990657;28;20038;-74
2022/07/02 10:02:28;;;;;;;1.08;0.40;;;;;;;35.46;nan;101082.00;5003385;28;20038;-73
2022/07/02 10:04:55;;;;;;;0.77;0.30;;;;;;;35.59;nan;101077.59;5007033;28;20034;-73
2022/07/02 10:07:23;;;;;;;0.82;0.38;;;;;;;35.56;nan;101083.72;5006716;28;20040;-73
2022/07/02 10:09:49;;;;;;;0.65;0.35;;;;;;;35.15;nan;101077.09;4987694;28;20037;-73
2022/07/02 10:12:16;;;;;;;0.70;0.40;;;;;;;35.16;nan;101078.75;5007963;28;20045;-74
2022/07/02 10:14:44;;;;;;;0.82;0.40;;;;;;;34.89;nan;101076.72;5006985;28;20046;-74
2022/07/02 10:17:10;;;;;;;1.17;0.50;;;;;;;35.70;nan;101077.09;5008743;28;20038;-74
2022/07/02 10:19:37;;;;;;;1.50;0.80;;;;;;;36.43;nan;101066.13;5007478;28;20518;-73
2022/07/02 10:22:05;;;;;;;0.60;0.40;;;;;;;36.21;nan;101066.09;4990165;28;20511;-73
2022/07/02 10:24:31;;;;;;;0.90;0.50;;;;;;;36.08;nan;101067.75;5007591;28;20056;-74
2022/07/02 10:26:59;;;;;;;1.10;0.40;;;;;;;36.23;nan;101059.19;5007834;28;20037;-74
2022/07/02 10:29:25;;;;;;;0.70;0.40;;;;;;;36.68;nan;101069.38;5006435;28;20060;-73
2022/07/02 10:32:02;;;;;;;0.50;0.30;;;;;;;37.08;nan;101055.66;5003663;28;20037;-74
2022/07/02 10:35:05;;;;;;;0.68;0.40;;;;;;;38.21;nan;101067.78;5006327;28;20030;-74
2022/07/02 10:37:31;;;;;;;1.55;0.30;;;;;;;38.41;nan;101054.41;5010913;28;20403;-74
2022/07/02 10:40:03;;;;;;;0.50;0.40;;;;;;;36.53;nan;101054.81;4991526;28;20030;-74
2022/07/02 10:42:38;;;;;;;0.57;0.30;;;;;;;36.48;nan;101043.94;5006808;28;20033;-74
2022/07/02 10:45:15;;;;;;;1.25;0.40;;;;;;;36.91;nan;101046.16;5008920;28;20038;-74
2022/07/02 10:48:02;;;;;;;0.88;0.40;;;;;;;36.87;nan;101047.91;5008859;28;20030;-74
2022/07/02 10:50:39;;;;;;;0.30;0.30;;;;;;;37.53;nan;101044.47;4989225;28;20069;-74
2022/07/02 10:53:09;;;;;;;0.20;0.20;;;;;;;39.03;nan;101044.84;5007976;28;20466;-74
2022/07/02 10:55:35;;;;;;;0.85;0.40;;;;;;;39.91;nan;100962.91;5008119;28;20440;-74
2022/07/02 10:58:03;;;;;;;0.40;0.30;;;;;;;40.43;nan;101030.84;5005879;28;20137;-74
2022/07/02 11:00:34;;;;;;;0.45;0.40;;;;;;;40.99;nan;101045.06;4996680;28;20111;-72
2022/07/02 11:03:18;;;;;;;0.70;0.40;;;;;;;40.22;nan;101044.72;4989677;28;20042;-72
2022/07/02 11:05:59;;;;;;;1.52;0.50;;;;;;;39.17;nan;101039.09;5005431;28;20035;-74
2022/07/02 11:08:59;;;;;;;;;;;;;;;38.69;nan;101045.75;5001792;28;20030;-74
2022/07/02 11:11:34;;;;;;;0.60;0.40;;;;;;;36.96;nan;101037.75;4944806;28;19924;-73
2022/07/02 11:14:07;;;;;;;0.30;0.20;;;;;;;37.43;nan;101036.47;4980044;28;20038;-74
2022/07/02 11:16:38;;;;;;;2.58;0.50;;;;;;;38.56;nan;101037.34;5006200;28;20053;-74
2022/07/02 11:19:04;;;;;;;0.70;0.32;;;;;;;40.11;nan;101033.25;5009292;28;20061;-74
2022/07/02 11:21:30;;;;;;;0.90;0.40;;;;;;;39.26;nan;101032.38;4990150;28;20246;-74
2022/07/02 11:23:56;;;;;;;1.02;0.40;;;;;;;38.49;nan;101030.69;5000587;28;20096;-74
2022/07/02 11:26:26;;;;;;;1.15;0.38;;;;;;;39.89;nan;101021.38;4998841;28;22303;-74
2022/07/02 11:28:52;;;;;;;0.43;0.28;;;;;;;39.84;nan;101013.28;5004798;28;20092;-74
2022/07/02 11:31:19;;;;;;;0.75;0.43;;;;;;;38.48;nan;101005.03;5006193;28;20040;-74
2022/07/02 11:33:48;;;;;;;1.23;0.40;;;;;;;38.62;nan;101016.69;5004372;28;20037;-74
2022/07/02 11:36:14;;;;;;;0.65;0.40;;;;;;;37.77;nan;101021.94;5002547;28;20602;-74
2022/07/02 11:38:40;;;;;;;0.60;0.30;;;;;;;36.86;nan;101015.97;5005122;28;20125;-74
2022/07/02 11:41:35;;;;;;;0.77;0.50;;;;;;;34.84;nan;101008.13;5006952;28;20033;-73
2022/07/02 11:44:11;;;;;;;1.80;0.50;;;;;;;35.84;nan;100997.28;4989384;28;20133;-74
2022/07/02 11:46:36;;;;;;;1.20;0.50;;;;;;;37.12;nan;101001.50;5006530;28;20037;-74
2022/07/02 11:49:01;;;;;;;0.70;0.30;;;;;;;36.74;nan;100993.72;5004716;28;20042;-73